Thunderstorms From: 25-05-2018 23:09 Until: 26-05-2018 15:00 warning for: Thunderstorms Level: Yellow info button

Although rather usual in this region, locally or potentially dangerous phenomena are expected. (such as local winds, summer thunderstorms, rising streams or high waves) Be aware and pay attention to the latest weather updates, especially if you carry out activities exposed to weather or close to a stream or shoreline. 


Meteo18 Weather Cam more information Meteo18 Weather Cam


warning for Thunderstorms more information blitzortung!


Rain radar more information rain snow radar


Visit our other weather sites:

Template documentation
and downloads

And another site



Weather Underground History page Text

Daily Summary for April 9, 2017 Units:  Metric    English   Both
« Previous Day
Next Day »
Daily Weekly Monthly Yearly Custom
  High: Low: Average:
Temperature: -17.8 °C -13.3 °C -8.5 °C
Dew Point: -17.8 °C -14.6 °C -13 °C
Humidity: Humidity % 30 % 62 %
Wind Speed: 0 km/h 0 km/h 3.4 km/h
Wind Gust: 0 km/h - -
Wind:- - SSW
Pressure: 0 hPa 34591.4 hPa -
Precipitation: 0 mm    
Historical Graphs
 
 
Tabular Data for April 9, 2017
Time Temperature Dew Point Pressure Wind Wind Speed Wind Gust Humidity Rainfall Rate (Hourly)
-17.8 °C -17.8 °C 0 hPa Calm     Humidity % 0 mm
00:02 -10.4 °C -13.1 °C 34625.2 hPa Calm   5.1 km/h 72 % 0 mm
00:12 -10.8 °C -13.3 °C 34625.2 hPa WNW 5.1 km/h 5.1 km/h 74 % 0 mm
00:17 -10.7 °C -13.1 °C 34625.2 hPa WNW 2.6 km/h 7.7 km/h 75 % 0 mm
00:22 -10.5 °C -13.1 °C 34625.2 hPa NW 2.6 km/h 7.7 km/h 73 % 0 mm
00:27 -10.4 °C -13.1 °C 34625.2 hPa NW 2.6 km/h 7.7 km/h 72 % 0 mm
00:32 -10.4 °C -13.2 °C 34625.2 hPa Calm   7.7 km/h 72 % 0 mm
00:37 -10.4 °C -13.2 °C 34625.2 hPa NW 2.6 km/h 7.7 km/h 72 % 0 mm
00:42 -10.6 °C -13.3 °C 34625.2 hPa NW 5.1 km/h 7.7 km/h 72 % 0 mm
00:47 -10.7 °C -13.4 °C 34625.2 hPa WNW 5.1 km/h 7.7 km/h 72 % 0 mm
00:52 -11 °C -13.4 °C 34625.2 hPa WNW 5.1 km/h 7.7 km/h 75 % 0 mm
00:57 -10.9 °C -13.2 °C 34625.2 hPa NW 5.1 km/h 7.7 km/h 76 % 0 mm
01:02 -10.7 °C -13.2 °C 34625.2 hPa NW 2.6 km/h 7.7 km/h 74 % 0 mm
01:07 -10.8 °C -13.4 °C 34625.2 hPa NW 2.6 km/h 7.7 km/h 73 % 0 mm
01:12 -10.7 °C -13.3 °C 34625.2 hPa NNW 5.1 km/h 7.7 km/h 73 % 0 mm
01:17 -10.7 °C -13.3 °C 34625.2 hPa North 2.6 km/h 7.7 km/h 73 % 0 mm
01:22 -10.7 °C -13.3 °C 34625.2 hPa North 2.6 km/h 7.7 km/h 73 % 0 mm
01:27 -10.7 °C -13.3 °C 34625.2 hPa North 7.7 km/h 7.7 km/h 73 % 0 mm
01:32 -10.7 °C -13.3 °C 34625.2 hPa North 2.6 km/h 7.7 km/h 73 % 0 mm
01:37 -10.8 °C -13.3 °C 34625.2 hPa North 5.1 km/h 7.7 km/h 74 % 0 mm
01:42 -10.8 °C -13.3 °C 34625.2 hPa NW 2.6 km/h 10.3 km/h 74 % 0 mm
01:47 -11 °C -13.4 °C 34625.2 hPa NW 5.1 km/h 10.3 km/h 75 % 0 mm
01:52 -10.9 °C -13.3 °C 34625.2 hPa NNW 2.6 km/h 7.7 km/h 75 % 0 mm
01:57 -10.8 °C -13.2 °C 34625.2 hPa NNW 2.6 km/h 7.7 km/h 75 % 0 mm
02:02 -10.8 °C -13.3 °C 34625.2 hPa NNW 5.1 km/h 7.7 km/h 74 % 0 mm
02:07 -10.8 °C -13.2 °C 34625.2 hPa NW 2.6 km/h 7.7 km/h 75 % 0 mm
02:12 -10.9 °C -13.3 °C 34625.2 hPa Calm   7.7 km/h 75 % 0 mm
02:17 -10.9 °C -13.3 °C 34625.2 hPa NNW 5.1 km/h 7.7 km/h 75 % 0 mm
02:22 -11 °C -13.4 °C 34625.2 hPa Calm   7.7 km/h 75 % 0 mm
02:27 -11.1 °C -13.3 °C 34611.7 hPa North 2.6 km/h 7.7 km/h 76 % 0 mm
02:32 -11.1 °C -13.3 °C 34611.7 hPa North 2.6 km/h 7.7 km/h 76 % 0 mm
02:37 -11.2 °C -13.4 °C 34611.7 hPa NNE 5.1 km/h 7.7 km/h 76 % 0 mm
02:42 -11.2 °C -13.4 °C 34611.7 hPa Calm   7.7 km/h 77 % 0 mm
02:52 -11.3 °C -13.4 °C 34611.7 hPa WNW 5.1 km/h 7.7 km/h 77 % 0 mm
02:57 -11.3 °C -13.3 °C 34611.7 hPa WNW 2.6 km/h 5.1 km/h 78 % 0 mm
03:02 -11.2 °C -13.4 °C 34611.7 hPa Calm   5.1 km/h 77 % 0 mm
03:07 -11.2 °C -13.4 °C 34611.7 hPa NW 2.6 km/h 5.1 km/h 77 % 0 mm
03:12 -11.3 °C -13.4 °C 34611.7 hPa Calm   5.1 km/h 77 % 0 mm
03:17 -11.3 °C -13.3 °C 34611.7 hPa Calm   2.6 km/h 78 % 0 mm
03:22 -11.3 °C -13.4 °C 34611.7 hPa NW 2.6 km/h 5.1 km/h 78 % 0 mm
03:27 -11.3 °C -13.4 °C 34611.7 hPa NW 2.6 km/h 5.1 km/h 78 % 0 mm
03:32 -11.3 °C -13.4 °C 34611.7 hPa NW 2.6 km/h 5.1 km/h 78 % 0 mm
03:37 -11.3 °C -13.3 °C 34611.7 hPa NW 2.6 km/h 5.1 km/h 78 % 0 mm
03:42 -11.2 °C -13.4 °C 34611.7 hPa NW 2.6 km/h 5.1 km/h 77 % 0 mm
03:47 -11.2 °C -13.4 °C 34611.7 hPa Calm   5.1 km/h 77 % 0 mm
03:52 -11.2 °C -13.4 °C 34611.7 hPa Calm   5.1 km/h 77 % 0 mm
03:57 -11.2 °C -13.3 °C 34611.7 hPa North 2.6 km/h 5.1 km/h 77 % 0 mm
04:02 -11.2 °C -13.3 °C 34611.7 hPa Calm   5.1 km/h 77 % 0 mm
04:07 -11.2 °C -13.4 °C 34611.7 hPa Calm   5.1 km/h 77 % 0 mm
04:12 -11.3 °C -13.5 °C 34611.7 hPa Calm   2.6 km/h 77 % 0 mm
04:17 -11.5 °C -13.6 °C 34611.7 hPa Calm   2.6 km/h 78 % 0 mm
04:22 -11.6 °C -13.6 °C 34611.7 hPa Calm   2.6 km/h 79 % 0 mm
04:27 -11.6 °C -13.4 °C 34601.5 hPa Calm   2.6 km/h 80 % 0 mm
04:32 -11.6 °C -13.4 °C 34601.5 hPa Calm   2.6 km/h 80 % 0 mm
04:37 -11.8 °C -13.6 °C 34601.5 hPa Calm     80 % 0 mm
04:42 -11.8 °C -13.6 °C 34611.7 hPa Calm   2.6 km/h 81 % 0 mm
04:47 -11.9 °C -13.6 °C 34601.5 hPa Calm   2.6 km/h 81 % 0 mm
04:52 -12 °C -13.7 °C 34611.7 hPa Calm   2.6 km/h 81 % 0 mm
04:57 -12.1 °C -13.7 °C 34601.5 hPa Calm   2.6 km/h 82 % 0 mm
05:02 -12.2 °C -13.8 °C 34601.5 hPa NNW 2.6 km/h 2.6 km/h 83 % 0 mm
05:12 -12.2 °C -13.8 °C 34601.5 hPa Calm   5.1 km/h 82 % 0 mm
05:17 -12.3 °C -13.8 °C 34601.5 hPa North 2.6 km/h 5.1 km/h 84 % 0 mm
05:22 -12.2 °C -13.6 °C 34601.5 hPa NNW 2.6 km/h 5.1 km/h 84 % 0 mm
05:27 -12.1 °C -13.7 °C 34601.5 hPa Calm   5.1 km/h 82 % 0 mm
05:32 -12.2 °C -13.8 °C 34601.5 hPa Calm   5.1 km/h 82 % 0 mm
05:37 -12.4 °C -13.9 °C 34601.5 hPa Calm   5.1 km/h 83 % 0 mm
05:42 -12.5 °C -13.8 °C 34601.5 hPa NNW 2.6 km/h 2.6 km/h 85 % 0 mm
05:47 -12.4 °C -13.8 °C 34601.5 hPa Calm   2.6 km/h 85 % 0 mm
05:52 -12.4 °C -13.8 °C 34601.5 hPa Calm   2.6 km/h 85 % 0 mm
05:57 -12.4 °C -13.8 °C 34601.5 hPa Calm   2.6 km/h 84 % 0 mm
06:02 -12.3 °C -13.7 °C 34601.5 hPa North 2.6 km/h 2.6 km/h 85 % 0 mm
06:07 -12.3 °C -13.8 °C 34601.5 hPa NNW 2.6 km/h 5.1 km/h 84 % 0 mm
06:12 -12.4 °C -13.9 °C 34601.5 hPa NNW 2.6 km/h 5.1 km/h 84 % 0 mm
06:17 -12.4 °C -13.8 °C 34601.5 hPa NNW 2.6 km/h 5.1 km/h 84 % 0 mm
06:22 -12.4 °C -13.8 °C 34601.5 hPa NNW 2.6 km/h 7.7 km/h 84 % 0 mm
06:32 -12.5 °C -13.9 °C 34611.7 hPa NNW 2.6 km/h 7.7 km/h 84 % 0 mm
06:37 -12.6 °C -14.1 °C 34611.7 hPa North 5.1 km/h 5.1 km/h 84 % 0 mm
06:42 -12.6 °C -13.8 °C 34601.5 hPa North 5.1 km/h 5.1 km/h 86 % 0 mm
06:47 -12.6 °C -13.9 °C 34601.5 hPa North 2.6 km/h 7.7 km/h 85 % 0 mm
06:52 -12.6 °C -14.1 °C 34611.7 hPa Calm   7.7 km/h 84 % 0 mm
06:57 -12.9 °C -14.4 °C 34611.7 hPa Calm   5.1 km/h 84 % 0 mm
07:02 -13.3 °C -14.5 °C 34611.7 hPa Calm   5.1 km/h 86 % 0 mm
07:12 -13.1 °C -13.9 °C 34611.7 hPa NNW 2.6 km/h 2.6 km/h 90 % 0 mm
07:17 -13 °C -13.9 °C 34611.7 hPa Calm   2.6 km/h 89 % 0 mm
07:22 -12.9 °C -14 °C 34611.7 hPa NNW 2.6 km/h 2.6 km/h 88 % 0 mm
07:27 -13 °C -14.1 °C 34611.7 hPa North 2.6 km/h 2.6 km/h 87 % 0 mm
07:32 -12.9 °C -14.1 °C 34611.7 hPa NNW 2.6 km/h 2.6 km/h 87 % 0 mm
07:37 -12.9 °C -14 °C 34611.7 hPa NNW 2.6 km/h 5.1 km/h 87 % 0 mm
07:42 -12.8 °C -13.9 °C 34611.7 hPa North 2.6 km/h 5.1 km/h 87 % 0 mm
07:47 -12.7 °C -13.9 °C 34611.7 hPa Calm   5.1 km/h 86 % 0 mm
07:52 -12.7 °C -14 °C 34611.7 hPa Calm   5.1 km/h 85 % 0 mm
07:57 -12.7 °C -14 °C 34625.2 hPa Calm   5.1 km/h 85 % 0 mm
08:02 -12.7 °C -14.1 °C 34625.2 hPa NW 2.6 km/h 5.1 km/h 85 % 0 mm
08:07 -12.7 °C -13.9 °C 34625.2 hPa Calm   5.1 km/h 86 % 0 mm
08:12 -12.6 °C -13.8 °C 34625.2 hPa Calm   5.1 km/h 87 % 0 mm
08:17 -12.4 °C -13.7 °C 34625.2 hPa Calm   5.1 km/h 86 % 0 mm
08:22 -12.3 °C -13.6 °C 34625.2 hPa Calm   2.6 km/h 86 % 0 mm
08:32 -11.8 °C -13.3 °C 34625.2 hPa Calm   2.6 km/h 84 % 0 mm
08:37 -11.6 °C -13.1 °C 34625.2 hPa Calm   2.6 km/h 84 % 0 mm
08:42 -11.4 °C -13 °C 34625.2 hPa Calm   2.6 km/h 83 % 0 mm
08:47 -11.1 °C -12.7 °C 34635.4 hPa Calm   2.6 km/h 83 % 0 mm
08:52 -10.9 °C -12.7 °C 34635.4 hPa Calm   2.6 km/h 81 % 0 mm
08:57 -10.7 °C -12.6 °C 34635.4 hPa Calm     80 % 0 mm
09:02 -10.2 °C -12.2 °C 34635.4 hPa Calm     79 % 0 mm
09:07 -9.6 °C -12.6 °C 34635.4 hPa Calm     70 % 0 mm
09:12 -9.4 °C -13 °C 34635.4 hPa Calm   2.6 km/h 65 % 0 mm
09:17 -9.4 °C -12.8 °C 34635.4 hPa Calm   2.6 km/h 67 % 0 mm
09:22 -9.6 °C -12.9 °C 34635.4 hPa SE 2.6 km/h 10.3 km/h 67 % 0 mm
09:27 -9.6 °C -12.9 °C 34635.4 hPa South 5.1 km/h 10.3 km/h 67 % 0 mm
09:32 -9.6 °C -12.9 °C 34635.4 hPa SE 7.7 km/h 10.3 km/h 67 % 0 mm
09:37 -9.6 °C -12.9 °C 34645.6 hPa SE 5.1 km/h 10.3 km/h 67 % 0 mm
09:42 -9.7 °C -13.2 °C 34635.4 hPa SSE 10.3 km/h 12.9 km/h 66 % 0 mm
09:47 -9.8 °C -13.2 °C 34645.6 hPa ESE 7.7 km/h 15.6 km/h 67 % 0 mm
09:52 -9.7 °C -12.8 °C 34645.6 hPa SE 5.1 km/h 15.6 km/h 69 % 0 mm
09:57 -9.7 °C -12.9 °C 34645.6 hPa ENE 5.1 km/h 15.6 km/h 68 % 0 mm
10:02 -9.5 °C -12.6 °C 34645.6 hPa East 5.1 km/h 15.6 km/h 69 % 0 mm
10:07 -9.4 °C -12.5 °C 34645.6 hPa East 2.6 km/h 12.9 km/h 69 % 0 mm
10:12 -9.4 °C -12.5 °C 34645.6 hPa East 2.6 km/h 10.3 km/h 69 % 0 mm
10:17 -9.3 °C -12.6 °C 34645.6 hPa East 5.1 km/h 10.3 km/h 68 % 0 mm
10:22 -9.4 °C -12.4 °C 34645.6 hPa Calm   10.3 km/h 70 % 0 mm
10:32 -9.3 °C -12.6 °C 34645.6 hPa Calm   12.9 km/h 68 % 0 mm
10:42 -9.2 °C -12.6 °C 34645.6 hPa SE 7.7 km/h 12.9 km/h 67 % 0 mm
10:47 -9.2 °C -12.6 °C 34645.6 hPa SE 7.7 km/h 10.3 km/h 67 % 0 mm
10:52 -9.1 °C -12.4 °C 34645.6 hPa SE 7.7 km/h 10.3 km/h 67 % 0 mm
10:57 -9.1 °C -12.2 °C 34645.6 hPa SE 5.1 km/h 10.3 km/h 69 % 0 mm
11:02 -8.8 °C -12.2 °C 34645.6 hPa Calm   12.9 km/h 67 % 0 mm
11:07 -8.7 °C -12.3 °C 34645.6 hPa SE 2.6 km/h 12.9 km/h 66 % 0 mm
11:12 -8.5 °C -11.9 °C 34659.1 hPa Calm   10.3 km/h 67 % 0 mm
11:17 -8.2 °C -11.8 °C 34645.6 hPa SE 2.6 km/h 7.7 km/h 66 % 0 mm
11:22 -8.3 °C -12.1 °C 34645.6 hPa Calm   12.9 km/h 64 % 0 mm
11:27 -8.2 °C -11.8 °C 34659.1 hPa SE 7.7 km/h 12.9 km/h 65 % 0 mm
11:32 -8.2 °C -11.8 °C 34645.6 hPa SSW 5.1 km/h 12.9 km/h 65 % 0 mm
11:37 -7.9 °C -11.7 °C 34659.1 hPa ESE 2.6 km/h 10.3 km/h 64 % 0 mm
11:42 -7.8 °C -11.9 °C 34659.1 hPa SE 5.1 km/h 10.3 km/h 62 % 0 mm
11:47 -7.7 °C -11.7 °C 34659.1 hPa Calm   15.6 km/h 63 % 0 mm
11:52 -7.6 °C -11.7 °C 34645.6 hPa SSE 2.6 km/h 15.6 km/h 62 % 0 mm
11:57 -7.4 °C -11.6 °C 34659.1 hPa East 5.1 km/h 15.6 km/h 62 % 0 mm
12:02 -7.5 °C -11.6 °C 34645.6 hPa Calm   10.3 km/h 62 % 0 mm
12:07 -7.4 °C -11.2 °C 34645.6 hPa East 2.6 km/h 10.3 km/h 64 % 0 mm
12:12 -7.4 °C -11.4 °C 34645.6 hPa East 7.7 km/h 12.9 km/h 63 % 0 mm
12:17 -7.3 °C -11.4 °C 34645.6 hPa ENE 2.6 km/h 12.9 km/h 62 % 0 mm
12:22 -7.2 °C -11.2 °C 34645.6 hPa ENE 5.1 km/h 12.9 km/h 63 % 0 mm
12:27 -7.1 °C -11.6 °C 34645.6 hPa Calm   10.3 km/h 60 % 0 mm
12:32 -6.8 °C -11.3 °C 34645.6 hPa SSE 2.6 km/h 10.3 km/h 60 % 0 mm
12:37 -6.7 °C -11.6 °C 34645.6 hPa Calm   10.3 km/h 57 % 0 mm
12:47 -6.6 °C -11.5 °C 34645.6 hPa ESE 10.3 km/h 12.9 km/h 57 % 0 mm
12:52 -6.6 °C -11.2 °C 34645.6 hPa Calm   12.9 km/h 59 % 0 mm
12:57 -6.5 °C -11.4 °C 34645.6 hPa ESE 5.1 km/h 12.9 km/h 57 % 0 mm
13:02 -6.4 °C -11.1 °C 34645.6 hPa SSE 5.1 km/h 12.9 km/h 58 % 0 mm
13:07 -6.3 °C -10.9 °C 34645.6 hPa ESE 7.7 km/h 10.3 km/h 59 % 0 mm
13:12 -6.3 °C -11.2 °C 34645.6 hPa ESE 7.7 km/h 15.6 km/h 57 % 0 mm
13:17 -6.2 °C -11.1 °C 34645.6 hPa East 7.7 km/h 15.6 km/h 57 % 0 mm
13:22 -6.1 °C -10.9 °C 34645.6 hPa SE 2.6 km/h 15.6 km/h 58 % 0 mm
13:27 -5.9 °C -11 °C 34635.4 hPa SSW 7.7 km/h 18.2 km/h 56 % 0 mm
13:32 -5.8 °C -11.4 °C 34635.4 hPa ESE 15.6 km/h 18.2 km/h 53 % 0 mm
13:37 -5.8 °C -10.7 °C 34635.4 hPa East 2.6 km/h 18.2 km/h 57 % 0 mm
13:42 -5.7 °C -11.1 °C 34635.4 hPa SE 7.7 km/h 18.2 km/h 54 % 0 mm
13:47 -5.9 °C -11.3 °C 34635.4 hPa Calm   18.2 km/h 54 % 0 mm
13:52 -5.7 °C -11.2 °C 34635.4 hPa Calm   18.2 km/h 53 % 0 mm
13:57 -5.7 °C -11.4 °C 34635.4 hPa East 5.1 km/h 18.2 km/h 52 % 0 mm
14:02 -5.8 °C -11.5 °C 34635.4 hPa Calm   12.9 km/h 52 % 0 mm
14:07 -5.5 °C -11.1 °C 34635.4 hPa Calm   12.9 km/h 53 % 0 mm
14:12 -5.4 °C -11.5 °C 34635.4 hPa East 5.1 km/h 12.9 km/h 50 % 0 mm
14:17 -5.4 °C -11.5 °C 34635.4 hPa SE 2.6 km/h 12.9 km/h 50 % 0 mm
14:22 -5.4 °C -11.5 °C 34635.4 hPa ENE 7.7 km/h 12.9 km/h 50 % 0 mm
14:27 -5.3 °C -10.9 °C 34635.4 hPa Calm   10.3 km/h 53 % 0 mm
14:32 -5.1 °C -11.5 °C 34635.4 hPa WSW 10.3 km/h 10.3 km/h 48 % 0 mm
14:37 -5.1 °C -11 °C 34635.4 hPa ESE 5.1 km/h 15.6 km/h 51 % 0 mm
14:42 -5.1 °C -11.9 °C 34635.4 hPa ENE 5.1 km/h 15.6 km/h 46 % 0 mm
14:47 -4.9 °C -11.8 °C 34635.4 hPa WSW 10.3 km/h 15.6 km/h 46 % 0 mm
14:52 -5.1 °C -12.1 °C 34635.4 hPa SSW 5.1 km/h 18.2 km/h 45 % 0 mm
14:57 -5.2 °C -12.1 °C 34635.4 hPa SSW 2.6 km/h 20.8 km/h 45 % 0 mm
15:02 -5.1 °C -12.1 °C 34635.4 hPa SW 15.6 km/h 20.8 km/h 45 % 0 mm
15:07 -4.9 °C -12.1 °C 34635.4 hPa SSW 15.6 km/h 20.8 km/h 44 % 0 mm
15:12 -5 °C -12.4 °C 34635.4 hPa SE 7.7 km/h 20.8 km/h 43 % 0 mm
15:17 -4.9 °C -11.9 °C 34625.2 hPa Calm   20.8 km/h 45 % 0 mm
15:22 -4.9 °C -11.9 °C 34625.2 hPa ESE 7.7 km/h 20.8 km/h 45 % 0 mm
15:27 -4.9 °C -11.5 °C 34625.2 hPa ESE 2.6 km/h 12.9 km/h 47 % 0 mm
15:32 -4.8 °C -11.7 °C 34625.2 hPa SSW 5.1 km/h 15.6 km/h 46 % 0 mm
15:37 -4.7 °C -11.7 °C 34625.2 hPa ESE 7.7 km/h 18.2 km/h 45 % 0 mm
15:42 -4.8 °C -12 °C 34625.2 hPa ESE 10.3 km/h 18.2 km/h 44 % 0 mm
15:47 -4.8 °C -12.4 °C 34625.2 hPa South 15.6 km/h 15.6 km/h 42 % 0 mm
15:52 -4.8 °C -12.6 °C 34611.7 hPa East 5.1 km/h 18.2 km/h 41 % 0 mm
15:57 -4.7 °C -12.3 °C 34625.2 hPa SSW 5.1 km/h 18.2 km/h 42 % 0 mm
16:02 -4.5 °C -12.9 °C 34611.7 hPa SW 20.8 km/h 20.8 km/h 38 % 0 mm
16:07 -4.6 °C -12.8 °C 34611.7 hPa SSW 2.6 km/h 20.8 km/h 39 % 0 mm
16:12 -4.4 °C -12.4 °C 34611.7 hPa West 5.1 km/h 20.8 km/h 40 % 0 mm
16:17 -4.2 °C -12.4 °C 34611.7 hPa SW 5.1 km/h 20.8 km/h 39 % 0 mm
16:22 -4.4 °C -12.8 °C 34611.7 hPa SW 2.6 km/h 15.6 km/h 38 % 0 mm
16:27 -4.3 °C -13.4 °C 34611.7 hPa Calm   20.8 km/h 35 % 0 mm
16:32 -4.3 °C -12.9 °C 34611.7 hPa WSW 5.1 km/h 20.8 km/h 37 % 0 mm
16:37 -4.3 °C -12.8 °C 34611.7 hPa Calm   12.9 km/h 38 % 0 mm
16:42 -4.2 °C -12.7 °C 34611.7 hPa Calm   12.9 km/h 38 % 0 mm
16:52 -4 °C -12.9 °C 34601.5 hPa WSW 7.7 km/h 10.3 km/h 36 % 0 mm
16:57 -4.1 °C -12.4 °C 34601.5 hPa SSW 7.7 km/h 12.9 km/h 39 % 0 mm
17:02 -4.1 °C -12.3 °C 34601.5 hPa SW 10.3 km/h 18.2 km/h 39 % 0 mm
17:07 -4.2 °C -12.7 °C 34601.5 hPa SW 7.7 km/h 18.2 km/h 38 % 0 mm
17:12 -4.3 °C -12.5 °C 34601.5 hPa SW 7.7 km/h 20.8 km/h 39 % 0 mm
17:17 -4.3 °C -12.5 °C 34601.5 hPa SE 5.1 km/h 20.8 km/h 39 % 0 mm
17:22 -4.2 °C -12.7 °C 34601.5 hPa SSW 2.6 km/h 20.8 km/h 38 % 0 mm
17:27 -4.2 °C -12.9 °C 34601.5 hPa WSW 10.3 km/h 20.8 km/h 37 % 0 mm
17:32 -4.2 °C -12.7 °C 34591.4 hPa SSW 12.9 km/h 20.8 km/h 38 % 0 mm
17:37 -4.2 °C -13.1 °C 34601.5 hPa SW 7.7 km/h 20.8 km/h 36 % 0 mm
17:42 -4.2 °C -13.4 °C 34601.5 hPa South 5.1 km/h 18.2 km/h 35 % 0 mm
17:47 -4.2 °C -13.1 °C 34591.4 hPa SW 10.3 km/h 20.8 km/h 36 % 0 mm
17:52 -4.2 °C -13.8 °C 34591.4 hPa SSW 15.6 km/h 20.8 km/h 33 % 0 mm
17:57 -4.2 °C -14.1 °C 34591.4 hPa SSW 10.3 km/h 20.8 km/h 32 % 0 mm
18:02 -4.2 °C -13.8 °C 34591.4 hPa SW 7.7 km/h 18.2 km/h 33 % 0 mm
18:07 -4.1 °C -13.7 °C 34591.4 hPa SW 12.9 km/h 20.8 km/h 33 % 0 mm
18:12 -4.2 °C -13.6 °C 34591.4 hPa South 5.1 km/h 20.8 km/h 34 % 0 mm
18:17 -4.1 °C -13.7 °C 34591.4 hPa South 12.9 km/h 18.2 km/h 33 % 0 mm
18:22 -4.1 °C -14 °C 34591.4 hPa SW 12.9 km/h 18.2 km/h 32 % 0 mm
18:27 -4.2 °C -14.6 °C 34591.4 hPa SSW 10.3 km/h 20.8 km/h 30 % 0 mm
18:32 -4.2 °C -13.8 °C 34591.4 hPa SSW 12.9 km/h 20.8 km/h 33 % 0 mm
18:37 -4.3 °C -14.2 °C 34591.4 hPa SW 12.9 km/h 18.2 km/h 32 % 0 mm
18:47 -4.2 °C -13.6 °C 34591.4 hPa South 12.9 km/h 18.2 km/h 34 % 0 mm
18:52 -4.3 °C -14.2 °C 34591.4 hPa SSW 7.7 km/h 18.2 km/h 32 % 0 mm
18:57 -4.3 °C -13.9 °C 34591.4 hPa SSW 10.3 km/h 18.2 km/h 33 % 0 mm
19:02 -4.3 °C -14.2 °C 34591.4 hPa SW 12.9 km/h 18.2 km/h 32 % 0 mm
19:07 -4.3 °C -14.2 °C 34591.4 hPa SSW 10.3 km/h 18.2 km/h 32 % 0 mm
19:12 -4.3 °C -14.4 °C 34591.4 hPa SSW 7.7 km/h 18.2 km/h 31 % 0 mm
19:17 -4.3 °C -13.9 °C 34591.4 hPa SW 10.3 km/h 18.2 km/h 33 % 0 mm
19:22 -4.4 °C -13.8 °C 34591.4 hPa SSE 5.1 km/h 18.2 km/h 34 % 0 mm
19:27 -4.4 °C -13.7 °C 34591.4 hPa SSW 7.7 km/h 15.6 km/h 34 % 0 mm
19:32 -4.4 °C -13.6 °C 34591.4 hPa SW 12.9 km/h 15.6 km/h 35 % 0 mm
19:37 -4.6 °C -13.4 °C 34591.4 hPa SSW 2.6 km/h 12.9 km/h 36 % 0 mm
19:47 -4.7 °C -13.8 °C 34591.4 hPa SW 5.1 km/h 12.9 km/h 35 % 0 mm
19:52 -4.9 °C -13.9 °C 34591.4 hPa SW 5.1 km/h 10.3 km/h 35 % 0 mm
19:57 -4.9 °C -13.6 °C 34591.4 hPa SW 5.1 km/h 10.3 km/h 37 % 0 mm
20:02 -5.1 °C -13.4 °C 34591.4 hPa SW 2.6 km/h 7.7 km/h 38 % 0 mm
20:07 -5.2 °C -13.3 °C 34591.4 hPa Calm   7.7 km/h 39 % 0 mm
20:12 -5.3 °C -13.4 °C 34591.4 hPa Calm   5.1 km/h 39 % 0 mm
20:17 -5.4 °C -13.6 °C 34591.4 hPa Calm   5.1 km/h 39 % 0 mm
20:22 -5.6 °C -13.3 °C 34591.4 hPa Calm     41 % 0 mm
20:27 -5.9 °C -13.3 °C 34591.4 hPa Calm     42 % 0 mm
20:32 -6.1 °C -13.5 °C 34591.4 hPa Calm     42 % 0 mm
20:37 -6.3 °C -13.8 °C 34591.4 hPa Calm     42 % 0 mm
20:42 -6.5 °C -13.9 °C 34591.4 hPa Calm     42 % 0 mm
20:47 -6.7 °C -13.9 °C 34591.4 hPa Calm     43 % 0 mm
20:52 -6.8 °C -13.8 °C 34601.5 hPa Calm     44 % 0 mm
20:57 -6.9 °C -13.7 °C 34601.5 hPa Calm     45 % 0 mm
21:02 -7.1 °C -13.8 °C 34601.5 hPa Calm     45 % 0 mm
21:12 -7.4 °C -13.3 °C 34601.5 hPa Calm     50 % 0 mm
21:17 -7.7 °C -13.8 °C 34601.5 hPa Calm     49 % 0 mm
21:22 -7.6 °C -13.8 °C 34601.5 hPa Calm     48 % 0 mm
21:32 -8 °C -13.6 °C 34611.7 hPa Calm     52 % 0 mm
21:37 -8.1 °C -13.8 °C 34611.7 hPa Calm     51 % 0 mm
21:42 -8.1 °C -13.4 °C 34611.7 hPa Calm     53 % 0 mm
21:47 -7.9 °C -13.6 °C 34611.7 hPa Calm     51 % 0 mm
21:57 -8.3 °C -13.9 °C 34611.7 hPa Calm     51 % 0 mm
22:02 -8.6 °C -13.7 °C 34611.7 hPa Calm     54 % 0 mm
22:07 -8.8 °C -13.5 °C 34611.7 hPa Calm     57 % 0 mm
22:12 -8.9 °C -13.3 °C 34611.7 hPa Calm     60 % 0 mm
22:17 -8.9 °C -13.3 °C 34611.7 hPa Calm     60 % 0 mm
22:22 -9 °C -13.2 °C 34611.7 hPa Calm     61 % 0 mm
22:27 -8.8 °C -13.2 °C 34611.7 hPa Calm     60 % 0 mm
22:32 -8.9 °C -13.1 °C 34625.2 hPa Calm     61 % 0 mm
22:42 -8.9 °C -13 °C 34625.2 hPa Calm     62 % 0 mm
22:52 -8.9 °C -13.1 °C 34625.2 hPa Calm     61 % 0 mm
22:57 -9 °C -13.1 °C 34625.2 hPa Calm     62 % 0 mm
23:02 -9.2 °C -13.1 °C 34625.2 hPa Calm     63 % 0 mm
23:07 -9.3 °C -12.9 °C 34625.2 hPa Calm     65 % 0 mm
23:12 -9.2 °C -13 °C 34625.2 hPa Calm     64 % 0 mm
23:17 -9.3 °C -13.2 °C 34635.4 hPa Calm     63 % 0 mm
23:22 -9.4 °C -13 °C 34635.4 hPa Calm     65 % 0 mm
23:27 -9.1 °C -13 °C 34635.4 hPa Calm     63 % 0 mm
23:32 -9.1 °C -13 °C 34635.4 hPa Calm     63 % 0 mm
23:37 -9.2 °C -13.1 °C 34635.4 hPa Calm     63 % 0 mm
23:42 -9.4 °C -13.2 °C 34635.4 hPa Calm     64 % 0 mm
23:47 -9.6 °C -13.2 °C 34635.4 hPa Calm     65 % 0 mm
23:52 -9.8 °C -13.3 °C 34635.4 hPa Calm     66 % 0 mm
23:57 -9.9 °C -13.2 °C 34625.2 hPa Calm     67 % 0 mm
Meteo18
Compliments of Weather Underground - 4 mb

Script developed by  Jim McMurry - jmcmurry@mwt.net Adapted for the template by  Wim van der Kuil - Leuven-Template.eu

You find our weather info also at:

European Weather Network

Weather Underground

Equipment we use:

Weather-station
Davis Vue

Weather-program
Meteobridge

Weather-server
Raspberry PI 2 B+

Provider
1 and 1

Davis Vue

Meteobridge

Raspberry PI 2 B+

1 and 1